sensor_id;sensor_type;location;lat;lon;timestamp;temperature;humidity
48264;DHT22;34086;51.076;13.722;2023-05-14T00:00:49;12.90;99.90
48264;DHT22;34086;51.076;13.722;2023-05-14T00:01:49;12.90;99.90
48264;DHT22;34086;51.076;13.722;2023-05-14T00:02:51;12.90;99.90
48264;DHT22;34086;51.076;13.722;2023-05-14T00:03:51;12.80;99.90
48264;DHT22;34086;51.076;13.722;2023-05-14T00:04:52;12.80;99.90
48264;DHT22;34086;51.076;13.722;2023-05-14T00:05:53;12.80;99.90
48264;DHT22;34086;51.076;13.722;2023-05-14T00:06:53;12.70;99.90
48264;DHT22;34086;51.076;13.722;2023-05-14T00:07:54;12.70;99.90
48264;DHT22;34086;51.076;13.722;2023-05-14T00:08:54;12.70;99.90
48264;DHT22;34086;51.076;13.722;2023-05-14T00:09:58;12.70;99.90
48264;DHT22;34086;51.076;13.722;2023-05-14T00:10:59;12.70;99.90
48264;DHT22;34086;51.076;13.722;2023-05-14T00:12:00;12.70;99.90
48264;DHT22;34086;51.076;13.722;2023-05-14T00:13:00;12.70;99.90
48264;DHT22;34086;51.076;13.722;2023-05-14T00:14:01;12.70;99.90
48264;DHT22;34086;51.076;13.722;2023-05-14T00:15:02;12.70;99.90
48264;DHT22;34086;51.076;13.722;2023-05-14T00:16:02;12.70;99.90
48264;DHT22;34086;51.076;13.722;2023-05-14T00:17:03;12.70;99.90
48264;DHT22;34086;51.076;13.722;2023-05-14T00:18:06;12.70;99.90
48264;DHT22;34086;51.076;13.722;2023-05-14T00:19:06;12.70;99.90
48264;DHT22;34086;51.076;13.722;2023-05-14T00:20:07;12.70;99.90
48264;DHT22;34086;51.076;13.722;2023-05-14T00:21:08;12.70;99.90
48264;DHT22;34086;51.076;13.722;2023-05-14T00:22:09;12.70;99.90
48264;DHT22;34086;51.076;13.722;2023-05-14T00:23:15;12.70;99.90
48264;DHT22;34086;51.076;13.722;2023-05-14T00:24:15;12.70;99.90
48264;DHT22;34086;51.076;13.722;2023-05-14T00:25:16;12.70;99.90
48264;DHT22;34086;51.076;13.722;2023-05-14T00:26:16;12.80;99.90
48264;DHT22;34086;51.076;13.722;2023-05-14T00:27:18;12.80;99.90
48264;DHT22;34086;51.076;13.722;2023-05-14T00:28:19;12.70;99.90
48264;DHT22;34086;51.076;13.722;2023-05-14T00:29:20;12.70;99.90
48264;DHT22;34086;51.076;13.722;2023-05-14T00:30:20;12.80;99.90
48264;DHT22;34086;51.076;13.722;2023-05-14T00:31:21;12.80;99.90
48264;DHT22;34086;51.076;13.722;2023-05-14T00:32:22;12.80;99.90
48264;DHT22;34086;51.076;13.722;2023-05-14T00:33:23;12.80;99.90
48264;DHT22;34086;51.076;13.722;2023-05-14T00:34:23;12.80;99.90
48264;DHT22;34086;51.076;13.722;2023-05-14T00:35:24;12.80;99.90
48264;DHT22;34086;51.076;13.722;2023-05-14T00:36:25;12.70;99.90
48264;DHT22;34086;51.076;13.722;2023-05-14T00:37:25;12.80;99.90
48264;DHT22;34086;51.076;13.722;2023-05-14T00:38:26;12.70;99.90
48264;DHT22;34086;51.076;13.722;2023-05-14T00:39:27;12.80;99.90
48264;DHT22;34086;51.076;13.722;2023-05-14T00:40:28;12.80;99.90
48264;DHT22;34086;51.076;13.722;2023-05-14T00:41:29;12.70;99.90
48264;DHT22;34086;51.076;13.722;2023-05-14T00:42:29;12.70;99.90
48264;DHT22;34086;51.076;13.722;2023-05-14T00:43:30;12.70;99.90
48264;DHT22;34086;51.076;13.722;2023-05-14T00:44:32;12.70;99.90
48264;DHT22;34086;51.076;13.722;2023-05-14T00:45:33;12.80;99.90
48264;DHT22;34086;51.076;13.722;2023-05-14T00:46:34;12.70;99.90
48264;DHT22;34086;51.076;13.722;2023-05-14T00:47:35;12.70;99.90
48264;DHT22;34086;51.076;13.722;2023-05-14T00:48:36;12.80;99.90
48264;DHT22;34086;51.076;13.722;2023-05-14T00:49:36;12.70;99.90
48264;DHT22;34086;51.076;13.722;2023-05-14T00:50:39;12.70;99.90
48264;DHT22;34086;51.076;13.722;2023-05-14T00:51:40;12.70;99.90
48264;DHT22;34086;51.076;13.722;2023-05-14T00:52:46;12.70;99.90
48264;DHT22;34086;51.076;13.722;2023-05-14T00:53:47;12.70;99.90
48264;DHT22;34086;51.076;13.722;2023-05-14T00:54:48;12.70;99.90
48264;DHT22;34086;51.076;13.722;2023-05-14T00:55:49;12.70;99.90
48264;DHT22;34086;51.076;13.722;2023-05-14T00:56:49;12.70;99.90
48264;DHT22;34086;51.076;13.722;2023-05-14T00:57:51;12.70;99.90
48264;DHT22;34086;51.076;13.722;2023-05-14T00:58:52;12.70;99.90
48264;DHT22;34086;51.076;13.722;2023-05-14T00:59:53;12.70;99.90
48264;DHT22;34086;51.076;13.722;2023-05-14T01:00:54;12.70;99.90
48264;DHT22;34086;51.076;13.722;2023-05-14T01:01:54;12.70;99.90
48264;DHT22;34086;51.076;13.722;2023-05-14T01:02:55;12.70;99.90
48264;DHT22;34086;51.076;13.722;2023-05-14T01:03:56;12.70;99.90
48264;DHT22;34086;51.076;13.722;2023-05-14T01:04:57;12.70;99.90
48264;DHT22;34086;51.076;13.722;2023-05-14T01:06:26;12.70;99.90
48264;DHT22;34086;51.076;13.722;2023-05-14T01:07:54;12.70;99.90
48264;DHT22;34086;51.076;13.722;2023-05-14T01:09:08;12.70;99.90
48264;DHT22;34086;51.076;13.722;2023-05-14T01:10:47;12.70;99.90
48264;DHT22;34086;51.076;13.722;2023-05-14T01:12:09;12.70;99.90
48264;DHT22;34086;51.076;13.722;2023-05-14T01:13:24;12.70;99.90
48264;DHT22;34086;51.076;13.722;2023-05-14T01:14:39;12.70;99.90
48264;DHT22;34086;51.076;13.722;2023-05-14T01:15:42;12.70;99.90
48264;DHT22;34086;51.076;13.722;2023-05-14T01:16:45;12.70;99.90
48264;DHT22;34086;51.076;13.722;2023-05-14T01:17:53;12.70;99.90
48264;DHT22;34086;51.076;13.722;2023-05-14T01:18:56;12.60;99.90
48264;DHT22;34086;51.076;13.722;2023-05-14T01:19:57;12.60;99.90
48264;DHT22;34086;51.076;13.722;2023-05-14T01:21:00;12.60;99.90
48264;DHT22;34086;51.076;13.722;2023-05-14T01:22:01;12.60;99.90
48264;DHT22;34086;51.076;13.722;2023-05-14T01:23:02;12.60;99.90
48264;DHT22;34086;51.076;13.722;2023-05-14T01:24:03;12.60;99.90
48264;DHT22;34086;51.076;13.722;2023-05-14T01:25:05;12.60;99.90
48264;DHT22;34086;51.076;13.722;2023-05-14T01:26:05;12.50;99.90
48264;DHT22;34086;51.076;13.722;2023-05-14T01:27:21;12.50;99.90
48264;DHT22;34086;51.076;13.722;2023-05-14T01:28:31;12.50;99.90
48264;DHT22;34086;51.076;13.722;2023-05-14T01:29:37;12.50;99.90
48264;DHT22;34086;51.076;13.722;2023-05-14T01:30:56;12.50;99.90
48264;DHT22;34086;51.076;13.722;2023-05-14T01:31:59;12.50;99.90
48264;DHT22;34086;51.076;13.722;2023-05-14T01:33:02;12.50;99.90
48264;DHT22;34086;51.076;13.722;2023-05-14T01:34:06;12.50;99.90
48264;DHT22;34086;51.076;13.722;2023-05-14T01:35:07;12.50;99.90
48264;DHT22;34086;51.076;13.722;2023-05-14T01:36:09;12.50;99.90
48264;DHT22;34086;51.076;13.722;2023-05-14T01:37:10;12.50;99.90
48264;DHT22;34086;51.076;13.722;2023-05-14T01:38:14;12.50;99.90
48264;DHT22;34086;51.076;13.722;2023-05-14T01:39:17;12.60;99.90
48264;DHT22;34086;51.076;13.722;2023-05-14T01:40:18;12.50;99.90
48264;DHT22;34086;51.076;13.722;2023-05-14T01:41:19;12.50;99.90
48264;DHT22;34086;51.076;13.722;2023-05-14T01:42:21;12.60;99.90
48264;DHT22;34086;51.076;13.722;2023-05-14T01:43:23;12.50;99.90
48264;DHT22;34086;51.076;13.722;2023-05-14T01:44:24;12.60;99.90
48264;DHT22;34086;51.076;13.722;2023-05-14T01:45:25;12.60;99.90
48264;DHT22;34086;51.076;13.722;2023-05-14T01:46:29;12.60;99.90
48264;DHT22;34086;51.076;13.722;2023-05-14T01:47:30;12.60;99.90
48264;DHT22;34086;51.076;13.722;2023-05-14T01:48:30;12.60;99.90
48264;DHT22;34086;51.076;13.722;2023-05-14T01:49:31;12.60;99.90
48264;DHT22;34086;51.076;13.722;2023-05-14T01:50:32;12.60;99.90
48264;DHT22;34086;51.076;13.722;2023-05-14T01:51:32;12.60;99.90
48264;DHT22;34086;51.076;13.722;2023-05-14T01:52:33;12.60;99.90
48264;DHT22;34086;51.076;13.722;2023-05-14T01:53:34;12.60;99.90
48264;DHT22;34086;51.076;13.722;2023-05-14T01:54:34;12.60;99.90
48264;DHT22;34086;51.076;13.722;2023-05-14T01:55:35;12.60;99.90
48264;DHT22;34086;51.076;13.722;2023-05-14T01:56:35;12.60;99.90
48264;DHT22;34086;51.076;13.722;2023-05-14T01:57:36;12.60;99.90
48264;DHT22;34086;51.076;13.722;2023-05-14T01:58:36;12.60;99.90
48264;DHT22;34086;51.076;13.722;2023-05-14T01:59:37;12.60;99.90
48264;DHT22;34086;51.076;13.722;2023-05-14T02:00:38;12.60;99.90
48264;DHT22;34086;51.076;13.722;2023-05-14T02:01:38;12.60;99.90
48264;DHT22;34086;51.076;13.722;2023-05-14T02:02:39;12.60;99.90
48264;DHT22;34086;51.076;13.722;2023-05-14T02:03:41;12.60;99.90
48264;DHT22;34086;51.076;13.722;2023-05-14T02:04:42;12.50;99.90
48264;DHT22;34086;51.076;13.722;2023-05-14T02:05:43;12.50;99.90
48264;DHT22;34086;51.076;13.722;2023-05-14T02:06:43;12.50;99.90
48264;DHT22;34086;51.076;13.722;2023-05-14T02:07:44;12.50;99.90
48264;DHT22;34086;51.076;13.722;2023-05-14T02:08:45;12.50;99.90
48264;DHT22;34086;51.076;13.722;2023-05-14T02:09:45;12.50;99.90
48264;DHT22;34086;51.076;13.722;2023-05-14T02:10:46;12.50;99.90
48264;DHT22;34086;51.076;13.722;2023-05-14T02:11:46;12.40;99.90
48264;DHT22;34086;51.076;13.722;2023-05-14T02:12:47;12.40;99.90
48264;DHT22;34086;51.076;13.722;2023-05-14T02:13:48;12.40;99.90
48264;DHT22;34086;51.076;13.722;2023-05-14T02:14:48;12.30;99.90
48264;DHT22;34086;51.076;13.722;2023-05-14T02:15:49;12.30;99.90
48264;DHT22;34086;51.076;13.722;2023-05-14T02:16:49;12.30;99.90
48264;DHT22;34086;51.076;13.722;2023-05-14T02:17:50;12.30;99.90
48264;DHT22;34086;51.076;13.722;2023-05-14T02:18:51;12.20;99.90
48264;DHT22;34086;51.076;13.722;2023-05-14T02:19:51;12.20;99.90
48264;DHT22;34086;51.076;13.722;2023-05-14T02:20:52;12.20;99.90
48264;DHT22;34086;51.076;13.722;2023-05-14T02:21:53;12.10;99.90
48264;DHT22;34086;51.076;13.722;2023-05-14T02:22:53;12.10;99.90
48264;DHT22;34086;51.076;13.722;2023-05-14T02:23:54;12.10;99.90
48264;DHT22;34086;51.076;13.722;2023-05-14T02:24:55;12.10;99.90
48264;DHT22;34086;51.076;13.722;2023-05-14T02:25:56;12.00;99.90
48264;DHT22;34086;51.076;13.722;2023-05-14T02:26:56;12.00;99.90
48264;DHT22;34086;51.076;13.722;2023-05-14T02:27:59;12.00;99.90
48264;DHT22;34086;51.076;13.722;2023-05-14T02:28:59;12.00;99.90
48264;DHT22;34086;51.076;13.722;2023-05-14T02:30:00;11.90;99.90
48264;DHT22;34086;51.076;13.722;2023-05-14T02:31:01;11.90;99.90
48264;DHT22;34086;51.076;13.722;2023-05-14T02:32:01;11.90;99.90
48264;DHT22;34086;51.076;13.722;2023-05-14T02:33:02;11.90;99.90
48264;DHT22;34086;51.076;13.722;2023-05-14T02:34:03;11.80;99.90
48264;DHT22;34086;51.076;13.722;2023-05-14T02:35:05;11.80;99.90
48264;DHT22;34086;51.076;13.722;2023-05-14T02:36:05;11.80;99.90
48264;DHT22;34086;51.076;13.722;2023-05-14T02:37:06;11.80;99.90
48264;DHT22;34086;51.076;13.722;2023-05-14T02:38:07;11.80;99.90
48264;DHT22;34086;51.076;13.722;2023-05-14T02:39:07;11.80;99.90
48264;DHT22;34086;51.076;13.722;2023-05-14T02:40:08;11.80;99.90
48264;DHT22;34086;51.076;13.722;2023-05-14T02:41:09;11.70;99.90
48264;DHT22;34086;51.076;13.722;2023-05-14T02:42:09;11.80;99.90
48264;DHT22;34086;51.076;13.722;2023-05-14T02:43:10;11.80;99.90
48264;DHT22;34086;51.076;13.722;2023-05-14T02:44:10;11.80;99.90
48264;DHT22;34086;51.076;13.722;2023-05-14T02:45:11;11.70;99.90
48264;DHT22;34086;51.076;13.722;2023-05-14T02:46:11;11.80;99.90
48264;DHT22;34086;51.076;13.722;2023-05-14T02:47:12;11.80;99.90
48264;DHT22;34086;51.076;13.722;2023-05-14T02:48:13;11.70;99.90
48264;DHT22;34086;51.076;13.722;2023-05-14T02:49:13;11.80;99.90
48264;DHT22;34086;51.076;13.722;2023-05-14T02:50:14;11.70;99.90
48264;DHT22;34086;51.076;13.722;2023-05-14T02:51:14;11.70;99.90
48264;DHT22;34086;51.076;13.722;2023-05-14T02:52:15;11.70;99.90
48264;DHT22;34086;51.076;13.722;2023-05-14T02:53:16;11.60;99.90
48264;DHT22;34086;51.076;13.722;2023-05-14T02:54:17;11.60;99.90
48264;DHT22;34086;51.076;13.722;2023-05-14T02:55:18;11.60;99.90
48264;DHT22;34086;51.076;13.722;2023-05-14T02:56:18;11.50;99.90
48264;DHT22;34086;51.076;13.722;2023-05-14T02:57:19;11.50;99.90
48264;DHT22;34086;51.076;13.722;2023-05-14T02:58:20;11.50;99.90
48264;DHT22;34086;51.076;13.722;2023-05-14T02:59:22;11.40;99.90
48264;DHT22;34086;51.076;13.722;2023-05-14T03:00:23;11.40;99.90
48264;DHT22;34086;51.076;13.722;2023-05-14T03:01:24;11.40;99.90
48264;DHT22;34086;51.076;13.722;2023-05-14T03:02:24;11.30;99.90
48264;DHT22;34086;51.076;13.722;2023-05-14T03:03:25;11.30;99.90
48264;DHT22;34086;51.076;13.722;2023-05-14T03:04:26;11.30;99.90
48264;DHT22;34086;51.076;13.722;2023-05-14T03:05:26;11.30;99.90
48264;DHT22;34086;51.076;13.722;2023-05-14T03:06:27;11.20;99.90
48264;DHT22;34086;51.076;13.722;2023-05-14T03:07:27;11.20;99.90
48264;DHT22;34086;51.076;13.722;2023-05-14T03:08:28;11.20;99.90
48264;DHT22;34086;51.076;13.722;2023-05-14T03:09:28;11.20;99.90
48264;DHT22;34086;51.076;13.722;2023-05-14T03:10:29;11.20;99.90
48264;DHT22;34086;51.076;13.722;2023-05-14T03:11:30;11.20;99.90
48264;DHT22;34086;51.076;13.722;2023-05-14T03:12:31;11.20;99.90
48264;DHT22;34086;51.076;13.722;2023-05-14T03:13:31;11.10;99.90
48264;DHT22;34086;51.076;13.722;2023-05-14T03:14:32;11.10;99.90
48264;DHT22;34086;51.076;13.722;2023-05-14T03:15:32;11.10;99.90
48264;DHT22;34086;51.076;13.722;2023-05-14T03:16:33;11.10;99.90
48264;DHT22;34086;51.076;13.722;2023-05-14T03:17:34;11.10;99.90
48264;DHT22;34086;51.076;13.722;2023-05-14T03:18:34;11.10;99.90
48264;DHT22;34086;51.076;13.722;2023-05-14T03:19:36;11.10;99.90
48264;DHT22;34086;51.076;13.722;2023-05-14T03:20:36;11.10;99.90
48264;DHT22;34086;51.076;13.722;2023-05-14T03:21:37;11.00;99.90
48264;DHT22;34086;51.076;13.722;2023-05-14T03:22:38;11.00;99.90
48264;DHT22;34086;51.076;13.722;2023-05-14T03:23:38;11.00;99.90
48264;DHT22;34086;51.076;13.722;2023-05-14T03:24:39;11.00;99.90
48264;DHT22;34086;51.076;13.722;2023-05-14T03:25:40;11.00;99.90
48264;DHT22;34086;51.076;13.722;2023-05-14T03:26:41;11.00;99.90
48264;DHT22;34086;51.076;13.722;2023-05-14T03:27:41;11.00;99.90
48264;DHT22;34086;51.076;13.722;2023-05-14T03:28:43;11.00;99.90
48264;DHT22;34086;51.076;13.722;2023-05-14T03:29:43;11.00;99.90
48264;DHT22;34086;51.076;13.722;2023-05-14T03:30:44;11.00;99.90
48264;DHT22;34086;51.076;13.722;2023-05-14T03:31:44;11.00;99.90
48264;DHT22;34086;51.076;13.722;2023-05-14T03:32:45;11.00;99.90
48264;DHT22;34086;51.076;13.722;2023-05-14T03:33:46;11.00;99.90
48264;DHT22;34086;51.076;13.722;2023-05-14T03:34:46;11.00;99.90
48264;DHT22;34086;51.076;13.722;2023-05-14T03:35:47;10.90;99.90
48264;DHT22;34086;51.076;13.722;2023-05-14T03:36:48;11.00;99.90
48264;DHT22;34086;51.076;13.722;2023-05-14T03:37:48;10.90;99.90
48264;DHT22;34086;51.076;13.722;2023-05-14T03:38:49;10.90;99.90
48264;DHT22;34086;51.076;13.722;2023-05-14T03:39:50;10.90;99.90
48264;DHT22;34086;51.076;13.722;2023-05-14T03:40:51;10.90;99.90
48264;DHT22;34086;51.076;13.722;2023-05-14T03:41:51;10.90;99.90
48264;DHT22;34086;51.076;13.722;2023-05-14T03:42:52;10.90;99.90
48264;DHT22;34086;51.076;13.722;2023-05-14T03:43:53;10.90;99.90
48264;DHT22;34086;51.076;13.722;2023-05-14T03:44:53;11.00;99.90
48264;DHT22;34086;51.076;13.722;2023-05-14T03:45:54;11.00;99.90
48264;DHT22;34086;51.076;13.722;2023-05-14T03:46:55;11.00;99.90
48264;DHT22;34086;51.076;13.722;2023-05-14T03:47:55;11.00;99.90
48264;DHT22;34086;51.076;13.722;2023-05-14T03:48:56;11.00;99.90
48264;DHT22;34086;51.076;13.722;2023-05-14T03:49:57;11.00;99.90
48264;DHT22;34086;51.076;13.722;2023-05-14T03:50:57;11.10;99.90
48264;DHT22;34086;51.076;13.722;2023-05-14T03:51:58;11.10;99.90
48264;DHT22;34086;51.076;13.722;2023-05-14T03:52:59;11.10;99.90
48264;DHT22;34086;51.076;13.722;2023-05-14T03:54:00;11.10;99.90
48264;DHT22;34086;51.076;13.722;2023-05-14T03:55:01;11.00;99.90
48264;DHT22;34086;51.076;13.722;2023-05-14T03:56:02;11.10;99.90
48264;DHT22;34086;51.076;13.722;2023-05-14T03:57:03;11.10;99.90
48264;DHT22;34086;51.076;13.722;2023-05-14T03:58:04;11.10;99.90
48264;DHT22;34086;51.076;13.722;2023-05-14T03:59:13;11.10;99.90
48264;DHT22;34086;51.076;13.722;2023-05-14T04:00:14;11.10;99.90
48264;DHT22;34086;51.076;13.722;2023-05-14T04:01:18;11.10;99.90
48264;DHT22;34086;51.076;13.722;2023-05-14T04:02:18;11.10;99.90
48264;DHT22;34086;51.076;13.722;2023-05-14T04:03:20;11.10;99.90
48264;DHT22;34086;51.076;13.722;2023-05-14T04:04:21;11.20;99.90
48264;DHT22;34086;51.076;13.722;2023-05-14T04:05:21;11.20;99.90
48264;DHT22;34086;51.076;13.722;2023-05-14T04:06:22;11.20;99.90
48264;DHT22;34086;51.076;13.722;2023-05-14T04:07:23;11.20;99.90
48264;DHT22;34086;51.076;13.722;2023-05-14T04:08:23;11.20;99.90
48264;DHT22;34086;51.076;13.722;2023-05-14T04:09:24;11.20;99.90
48264;DHT22;34086;51.076;13.722;2023-05-14T04:10:25;11.30;99.90
48264;DHT22;34086;51.076;13.722;2023-05-14T04:11:27;11.30;99.90
48264;DHT22;34086;51.076;13.722;2023-05-14T04:12:27;11.40;99.90
48264;DHT22;34086;51.076;13.722;2023-05-14T04:13:28;11.60;99.90
48264;DHT22;34086;51.076;13.722;2023-05-14T04:14:28;11.80;99.90
48264;DHT22;34086;51.076;13.722;2023-05-14T04:15:29;12.00;99.90
48264;DHT22;34086;51.076;13.722;2023-05-14T04:16:30;12.20;99.90
48264;DHT22;34086;51.076;13.722;2023-05-14T04:17:31;12.50;99.90
48264;DHT22;34086;51.076;13.722;2023-05-14T04:18:31;12.70;99.90
48264;DHT22;34086;51.076;13.722;2023-05-14T04:19:35;12.90;99.90
48264;DHT22;34086;51.076;13.722;2023-05-14T04:20:37;13.10;99.90
48264;DHT22;34086;51.076;13.722;2023-05-14T04:21:37;13.30;99.90
48264;DHT22;34086;51.076;13.722;2023-05-14T04:22:38;13.50;99.90
48264;DHT22;34086;51.076;13.722;2023-05-14T04:23:38;13.70;99.90
48264;DHT22;34086;51.076;13.722;2023-05-14T04:24:39;13.90;99.90
48264;DHT22;34086;51.076;13.722;2023-05-14T04:25:40;14.00;99.90
48264;DHT22;34086;51.076;13.722;2023-05-14T04:26:40;14.20;99.90
48264;DHT22;34086;51.076;13.722;2023-05-14T04:27:49;14.30;99.90
48264;DHT22;34086;51.076;13.722;2023-05-14T04:28:53;14.50;99.90
48264;DHT22;34086;51.076;13.722;2023-05-14T04:29:53;14.60;99.90
48264;DHT22;34086;51.076;13.722;2023-05-14T04:30:54;14.80;99.90
48264;DHT22;34086;51.076;13.722;2023-05-14T04:31:54;14.90;99.90
48264;DHT22;34086;51.076;13.722;2023-05-14T04:32:55;15.00;99.90
48264;DHT22;34086;51.076;13.722;2023-05-14T04:33:55;15.00;99.90
48264;DHT22;34086;51.076;13.722;2023-05-14T04:34:56;15.10;99.90
48264;DHT22;34086;51.076;13.722;2023-05-14T04:35:57;15.20;99.90
48264;DHT22;34086;51.076;13.722;2023-05-14T04:36:57;15.30;99.90
48264;DHT22;34086;51.076;13.722;2023-05-14T04:37:58;15.40;99.90
48264;DHT22;34086;51.076;13.722;2023-05-14T04:38:58;15.50;99.90
48264;DHT22;34086;51.076;13.722;2023-05-14T04:39:59;15.60;99.90
48264;DHT22;34086;51.076;13.722;2023-05-14T04:41:00;15.60;99.90
48264;DHT22;34086;51.076;13.722;2023-05-14T04:42:01;15.70;99.90
48264;DHT22;34086;51.076;13.722;2023-05-14T04:43:02;15.80;99.90
48264;DHT22;34086;51.076;13.722;2023-05-14T04:44:02;15.90;99.90
48264;DHT22;34086;51.076;13.722;2023-05-14T04:45:04;16.00;99.90
48264;DHT22;34086;51.076;13.722;2023-05-14T04:46:05;16.10;99.90
48264;DHT22;34086;51.076;13.722;2023-05-14T04:47:06;16.30;99.90
48264;DHT22;34086;51.076;13.722;2023-05-14T04:48:06;16.40;99.90
48264;DHT22;34086;51.076;13.722;2023-05-14T04:49:07;16.50;99.90
48264;DHT22;34086;51.076;13.722;2023-05-14T04:50:08;16.60;99.90
48264;DHT22;34086;51.076;13.722;2023-05-14T04:51:09;16.60;99.90
48264;DHT22;34086;51.076;13.722;2023-05-14T04:52:10;16.70;99.90
48264;DHT22;34086;51.076;13.722;2023-05-14T04:53:10;16.70;99.90
48264;DHT22;34086;51.076;13.722;2023-05-14T04:54:11;16.60;99.90
48264;DHT22;34086;51.076;13.722;2023-05-14T04:55:11;16.50;99.90
48264;DHT22;34086;51.076;13.722;2023-05-14T04:56:12;16.50;99.90
48264;DHT22;34086;51.076;13.722;2023-05-14T04:57:12;16.50;99.90
48264;DHT22;34086;51.076;13.722;2023-05-14T04:58:13;16.30;99.90
48264;DHT22;34086;51.076;13.722;2023-05-14T04:59:13;16.20;99.90
48264;DHT22;34086;51.076;13.722;2023-05-14T05:00:16;16.10;99.90
48264;DHT22;34086;51.076;13.722;2023-05-14T05:01:17;16.20;99.90
48264;DHT22;34086;51.076;13.722;2023-05-14T05:02:17;16.30;99.90
48264;DHT22;34086;51.076;13.722;2023-05-14T05:03:18;16.40;99.90
48264;DHT22;34086;51.076;13.722;2023-05-14T05:04:18;16.60;99.90
48264;DHT22;34086;51.076;13.722;2023-05-14T05:05:19;16.70;99.90
48264;DHT22;34086;51.076;13.722;2023-05-14T05:06:20;16.80;99.90
48264;DHT22;34086;51.076;13.722;2023-05-14T05:07:20;17.00;99.90
48264;DHT22;34086;51.076;13.722;2023-05-14T05:08:21;17.20;99.90
48264;DHT22;34086;51.076;13.722;2023-05-14T05:09:21;17.30;99.90
48264;DHT22;34086;51.076;13.722;2023-05-14T05:10:22;17.50;99.90
48264;DHT22;34086;51.076;13.722;2023-05-14T05:11:23;17.60;99.90
48264;DHT22;34086;51.076;13.722;2023-05-14T05:12:23;17.70;99.90
48264;DHT22;34086;51.076;13.722;2023-05-14T05:13:24;17.80;99.90
48264;DHT22;34086;51.076;13.722;2023-05-14T05:14:24;17.90;99.90
48264;DHT22;34086;51.076;13.722;2023-05-14T05:15:25;18.00;99.90
48264;DHT22;34086;51.076;13.722;2023-05-14T05:16:26;18.10;99.90
48264;DHT22;34086;51.076;13.722;2023-05-14T05:17:28;18.10;99.90
48264;DHT22;34086;51.076;13.722;2023-05-14T05:18:28;18.10;99.90
48264;DHT22;34086;51.076;13.722;2023-05-14T05:19:29;18.20;99.90
48264;DHT22;34086;51.076;13.722;2023-05-14T05:20:29;18.20;99.90
48264;DHT22;34086;51.076;13.722;2023-05-14T05:21:30;18.30;99.90
48264;DHT22;34086;51.076;13.722;2023-05-14T05:22:31;18.30;99.90
48264;DHT22;34086;51.076;13.722;2023-05-14T05:23:31;18.40;99.90
48264;DHT22;34086;51.076;13.722;2023-05-14T05:24:32;18.50;99.90
48264;DHT22;34086;51.076;13.722;2023-05-14T05:25:32;18.50;99.90
48264;DHT22;34086;51.076;13.722;2023-05-14T05:26:33;18.50;99.90
48264;DHT22;34086;51.076;13.722;2023-05-14T05:27:36;18.50;99.90
48264;DHT22;34086;51.076;13.722;2023-05-14T05:28:36;18.60;99.90
48264;DHT22;34086;51.076;13.722;2023-05-14T05:29:37;18.60;99.90
48264;DHT22;34086;51.076;13.722;2023-05-14T05:30:38;18.60;99.90
48264;DHT22;34086;51.076;13.722;2023-05-14T05:31:39;18.60;99.90
48264;DHT22;34086;51.076;13.722;2023-05-14T05:32:40;18.60;99.90
48264;DHT22;34086;51.076;13.722;2023-05-14T05:33:41;18.60;99.90
48264;DHT22;34086;51.076;13.722;2023-05-14T05:34:41;18.70;99.90
48264;DHT22;34086;51.076;13.722;2023-05-14T05:35:42;18.70;99.90
48264;DHT22;34086;51.076;13.722;2023-05-14T05:36:43;18.80;99.90
48264;DHT22;34086;51.076;13.722;2023-05-14T05:37:44;18.80;99.90
48264;DHT22;34086;51.076;13.722;2023-05-14T05:38:44;19.00;99.90
48264;DHT22;34086;51.076;13.722;2023-05-14T05:39:45;19.00;99.90
48264;DHT22;34086;51.076;13.722;2023-05-14T05:40:47;19.00;99.90
48264;DHT22;34086;51.076;13.722;2023-05-14T05:41:47;19.00;99.90
48264;DHT22;34086;51.076;13.722;2023-05-14T05:42:48;19.00;99.90
48264;DHT22;34086;51.076;13.722;2023-05-14T05:43:48;19.10;99.90
48264;DHT22;34086;51.076;13.722;2023-05-14T05:44:49;19.20;99.90
48264;DHT22;34086;51.076;13.722;2023-05-14T05:45:50;19.10;99.90
48264;DHT22;34086;51.076;13.722;2023-05-14T05:46:50;19.10;99.90
48264;DHT22;34086;51.076;13.722;2023-05-14T05:47:51;19.20;99.90
48264;DHT22;34086;51.076;13.722;2023-05-14T05:48:52;19.10;99.90
48264;DHT22;34086;51.076;13.722;2023-05-14T05:49:52;19.10;99.90
48264;DHT22;34086;51.076;13.722;2023-05-14T05:50:53;19.10;99.90
48264;DHT22;34086;51.076;13.722;2023-05-14T05:51:54;19.20;99.90
48264;DHT22;34086;51.076;13.722;2023-05-14T05:52:55;19.30;99.90
48264;DHT22;34086;51.076;13.722;2023-05-14T05:53:55;19.30;99.90
48264;DHT22;34086;51.076;13.722;2023-05-14T05:54:56;19.30;99.90
48264;DHT22;34086;51.076;13.722;2023-05-14T05:55:56;19.40;99.90
48264;DHT22;34086;51.076;13.722;2023-05-14T05:56:58;19.40;99.90
48264;DHT22;34086;51.076;13.722;2023-05-14T05:57:58;19.30;99.90
48264;DHT22;34086;51.076;13.722;2023-05-14T05:58:59;19.40;99.90
48264;DHT22;34086;51.076;13.722;2023-05-14T06:00:00;19.40;99.60
48264;DHT22;34086;51.076;13.722;2023-05-14T06:01:13;19.30;99.70
48264;DHT22;34086;51.076;13.722;2023-05-14T06:02:13;19.20;99.90
48264;DHT22;34086;51.076;13.722;2023-05-14T06:03:14;19.20;99.90
48264;DHT22;34086;51.076;13.722;2023-05-14T06:04:15;19.10;99.90
48264;DHT22;34086;51.076;13.722;2023-05-14T06:05:15;18.90;99.90
48264;DHT22;34086;51.076;13.722;2023-05-14T06:06:16;18.80;99.90
48264;DHT22;34086;51.076;13.722;2023-05-14T06:07:17;18.70;99.90
48264;DHT22;34086;51.076;13.722;2023-05-14T06:08:17;18.40;99.90
48264;DHT22;34086;51.076;13.722;2023-05-14T06:09:18;18.20;99.90
48264;DHT22;34086;51.076;13.722;2023-05-14T06:10:19;18.00;99.90
48264;DHT22;34086;51.076;13.722;2023-05-14T06:11:20;17.80;99.90
48264;DHT22;34086;51.076;13.722;2023-05-14T06:12:21;17.70;99.90
48264;DHT22;34086;51.076;13.722;2023-05-14T06:13:21;17.60;99.90
48264;DHT22;34086;51.076;13.722;2023-05-14T06:14:22;17.40;99.90
48264;DHT22;34086;51.076;13.722;2023-05-14T06:15:22;17.30;99.90
48264;DHT22;34086;51.076;13.722;2023-05-14T06:16:23;17.20;99.90
48264;DHT22;34086;51.076;13.722;2023-05-14T06:17:24;17.10;99.90
48264;DHT22;34086;51.076;13.722;2023-05-14T06:18:25;17.00;99.90
48264;DHT22;34086;51.076;13.722;2023-05-14T06:19:25;16.90;99.90
48264;DHT22;34086;51.076;13.722;2023-05-14T06:20:26;16.90;99.90
48264;DHT22;34086;51.076;13.722;2023-05-14T06:21:26;16.90;99.90
48264;DHT22;34086;51.076;13.722;2023-05-14T06:22:27;16.80;99.90